Time;durP1;ratioP1;P1;durP2;ratioP2;P2;SDS_P1;SDS_P2;PMS_P1;PMS_P2;Temp;Humidity;BMP_temperature;BMP_pressure;BME280_temperature;BME280_humidity;BME280_pressure;Samples;Min_cycle;Max_cycle;Signal;HPM_P1;HPM_P2
2024/04/17 00:01:44;;;;;;;11.87;3.90;;;6.60;99.90;;;;;;5414559;26;19992;-51
2024/04/17 00:04:10;;;;;;;16.50;3.87;;;6.60;99.90;;;;;;5414648;26;20060;-52
2024/04/17 00:06:36;;;;;;;14.83;4.00;;;6.60;99.90;;;;;;5414982;26;19991;-51
2024/04/17 00:09:02;;;;;;;16.90;4.23;;;6.70;99.90;;;;;;5414218;26;19991;-51
2024/04/17 00:11:28;;;;;;;16.30;4.13;;;6.60;99.90;;;;;;5414090;26;20004;-51
2024/04/17 00:13:54;;;;;;;19.03;5.27;;;6.60;99.90;;;;;;5414528;26;20398;-50
2024/04/17 00:16:20;;;;;;;19.07;3.70;;;6.60;99.90;;;;;;5416858;26;19991;-51
2024/04/17 00:18:46;;;;;;;20.93;4.40;;;6.50;99.90;;;;;;5416786;26;20060;-52
2024/04/17 00:21:12;;;;;;;17.37;4.50;;;6.50;99.90;;;;;;5417976;26;20063;-51
2024/04/17 00:23:38;;;;;;;16.97;4.10;;;6.50;99.90;;;;;;5418142;26;19992;-48
2024/04/17 00:26:04;;;;;;;17.57;4.57;;;6.40;99.90;;;;;;5418286;26;20428;-52
2024/04/17 00:28:30;;;;;;;24.53;5.10;;;6.40;99.90;;;;;;5417312;26;20007;-49
2024/04/17 00:30:56;;;;;;;19.17;6.13;;;6.30;99.90;;;;;;5418121;26;20027;-51
2024/04/17 00:33:24;;;;;;;22.80;4.03;;;6.30;99.90;;;;;;5416421;26;20065;-48
2024/04/17 00:35:50;;;;;;;19.83;4.27;;;6.20;99.90;;;;;;5418024;26;20000;-51
2024/04/17 00:38:16;;;;;;;18.47;5.30;;;6.20;99.90;;;;;;5415353;26;20068;-51
2024/04/17 00:40:42;;;;;;;18.57;4.80;;;6.20;99.90;;;;;;5417640;26;20344;-48
2024/04/17 00:43:08;;;;;;;17.80;3.27;;;6.20;99.90;;;;;;5417650;26;20072;-49
2024/04/17 00:45:39;;;;;;;17.13;3.50;;;6.10;99.90;;;;;;5417489;26;19995;-48
2024/04/17 00:48:09;;;;;;;17.07;3.90;;;6.10;99.90;;;;;;5417125;26;20037;-48
2024/04/17 00:50:37;;;;;;;13.97;2.50;;;6.00;99.90;;;;;;5416359;26;19991;-50
2024/04/17 00:53:04;;;;;;;13.20;2.77;;;6.00;99.90;;;;;;5417538;26;20010;-46
2024/04/17 00:55:31;;;;;;;14.90;3.20;;;5.90;99.90;;;;;;5417368;26;19992;-47
2024/04/17 00:58:00;;;;;;;15.53;2.90;;;5.90;99.90;;;;;;5416746;26;20046;-48
2024/04/17 01:00:26;;;;;;;13.90;2.57;;;5.80;99.90;;;;;;5417250;26;19991;-49
2024/04/17 01:02:52;;;;;;;13.10;3.20;;;5.80;99.90;;;;;;5417391;26;20406;-47
2024/04/17 01:05:18;;;;;;;12.40;3.07;;;5.70;99.90;;;;;;5417288;26;19991;-47
2024/04/17 01:07:44;;;;;;;13.70;3.40;;;5.70;99.90;;;;;;5416621;26;20064;-48
2024/04/17 01:10:10;;;;;;;14.10;2.80;;;5.60;99.90;;;;;;5417385;26;20064;-50
2024/04/17 01:12:36;;;;;;;13.20;2.67;;;5.60;99.90;;;;;;5417611;26;20005;-51
2024/04/17 01:15:09;;;;;;;11.80;2.77;;;5.50;99.90;;;;;;5417164;26;19996;-49
2024/04/17 01:17:39;;;;;;;12.10;2.47;;;5.50;99.90;;;;;;5416630;26;20003;-50
2024/04/17 01:20:05;;;;;;;16.17;3.03;;;5.50;99.90;;;;;;5417255;26;20449;-47
2024/04/17 01:22:31;;;;;;;16.33;3.43;;;5.50;99.90;;;;;;5417372;26;20352;-48
2024/04/17 01:24:57;;;;;;;13.07;2.67;;;5.40;99.90;;;;;;5417269;26;20050;-49
2024/04/17 01:27:23;;;;;;;12.50;2.73;;;5.40;99.90;;;;;;5416464;26;19995;-50
2024/04/17 01:29:49;;;;;;;16.40;3.67;;;5.40;99.90;;;;;;5416061;26;20076;-51
2024/04/17 01:32:17;;;;;;;16.63;2.87;;;5.40;99.90;;;;;;5417095;26;20069;-48
2024/04/17 01:34:43;;;;;;;21.43;3.23;;;5.30;99.90;;;;;;5416971;26;20069;-51
2024/04/17 01:37:09;;;;;;;15.47;3.50;;;5.30;99.90;;;;;;5417299;26;20069;-50
2024/04/17 01:39:35;;;;;;;17.80;3.00;;;5.20;99.90;;;;;;5414335;26;19995;-48
2024/04/17 01:42:01;;;;;;;16.33;3.57;;;5.20;99.90;;;;;;5416909;26;20069;-52
2024/04/17 01:44:27;;;;;;;10.80;2.80;;;5.20;99.90;;;;;;5417033;26;20008;-49
2024/04/17 01:46:53;;;;;;;13.30;2.67;;;5.10;99.90;;;;;;5415347;26;20068;-47
2024/04/17 01:49:19;;;;;;;20.70;3.83;;;5.10;99.90;;;;;;5414485;26;20120;-48
2024/04/17 01:51:45;;;;;;;12.00;3.97;;;5.10;99.90;;;;;;5416909;26;20408;-46
2024/04/17 01:54:11;;;;;;;11.10;2.60;;;5.10;99.90;;;;;;5416861;26;20128;-47
2024/04/17 01:56:37;;;;;;;13.63;3.03;;;5.10;99.90;;;;;;5416818;26;20128;-46
2024/04/17 01:59:03;;;;;;;11.73;2.50;;;5.10;99.90;;;;;;5415753;26;20007;-49
2024/04/17 02:01:29;;;;;;;14.87;2.97;;;5.00;99.90;;;;;;5416714;26;20014;-46
2024/04/17 02:03:55;;;;;;;17.83;2.93;;;5.00;99.90;;;;;;5416345;26;20011;-47
2024/04/17 02:06:21;;;;;;;10.27;2.83;;;5.00;99.90;;;;;;5416624;26;20467;-48
2024/04/17 02:08:47;;;;;;;17.80;3.00;;;5.00;99.90;;;;;;5415638;26;20042;-47
2024/04/17 02:11:13;;;;;;;15.87;2.77;;;4.90;99.90;;;;;;5416384;26;19995;-48
2024/04/17 02:13:39;;;;;;;13.40;2.77;;;4.90;99.90;;;;;;5414576;26;19999;-47
2024/04/17 02:16:06;;;;;;;6.43;2.30;;;4.90;99.90;;;;;;5416358;26;20460;-49
2024/04/17 02:18:33;;;;;;;12.80;2.70;;;4.80;99.90;;;;;;5415882;26;20010;-47
2024/04/17 02:21:00;;;;;;;15.47;3.23;;;4.80;99.90;;;;;;5416189;26;19998;-51
2024/04/17 02:23:28;;;;;;;26.87;4.87;;;4.80;99.90;;;;;;5416459;26;20525;-50
2024/04/17 02:25:55;;;;;;;13.53;3.00;;;4.80;99.90;;;;;;5416267;26;19996;-51
2024/04/17 02:28:21;;;;;;;9.63;2.50;;;4.80;99.90;;;;;;5415526;26;20260;-48
2024/04/17 02:30:47;;;;;;;12.30;2.80;;;4.80;99.90;;;;;;5416174;26;20047;-47
2024/04/17 02:33:13;;;;;;;9.73;3.10;;;4.70;99.90;;;;;;5416193;26;19995;-49
2024/04/17 02:35:39;;;;;;;14.63;3.20;;;4.70;99.90;;;;;;5416069;26;19995;-50
2024/04/17 02:38:05;;;;;;;12.37;2.70;;;4.70;99.90;;;;;;5413567;26;19987;-51
2024/04/17 02:40:31;;;;;;;13.13;3.93;;;4.70;99.90;;;;;;5415918;26;20065;-47
2024/04/17 02:42:57;;;;;;;11.40;3.00;;;4.60;99.90;;;;;;5416040;26;19992;-50
2024/04/17 02:45:23;;;;;;;17.60;3.03;;;4.60;99.90;;;;;;5415936;26;20415;-47
2024/04/17 02:47:49;;;;;;;15.23;4.17;;;4.60;99.90;;;;;;5415058;26;19995;-47
2024/04/17 02:50:15;;;;;;;13.03;3.23;;;4.60;99.90;;;;;;5415912;26;20029;-49
2024/04/17 02:52:41;;;;;;;15.60;3.73;;;4.60;99.90;;;;;;5415866;26;20344;-46
2024/04/17 02:55:08;;;;;;;11.93;3.23;;;4.60;99.90;;;;;;5415856;26;20073;-49
2024/04/17 02:57:34;;;;;;;13.00;3.57;;;4.50;99.90;;;;;;5415784;26;19995;-47
2024/04/17 03:00:00;;;;;;;15.90;3.87;;;4.50;99.90;;;;;;5414956;26;19995;-51
2024/04/17 03:02:26;;;;;;;13.90;3.43;;;4.50;99.90;;;;;;5415575;26;19996;-50
2024/04/17 03:04:52;;;;;;;14.30;3.97;;;4.50;99.90;;;;;;5415628;26;20068;-49
2024/04/17 03:07:18;;;;;;;20.47;4.37;;;4.50;99.90;;;;;;5415794;26;20341;-47
2024/04/17 03:09:47;;;;;;;16.83;4.23;;;4.50;99.90;;;;;;5414736;26;20326;-49
2024/04/17 03:12:13;;;;;;;;;;;4.40;99.90;;;;;;5416259;26;20101;-47
2024/04/17 03:14:39;;;;;;;12.13;3.40;;;4.40;99.90;;;;;;5415246;26;19928;-47
2024/04/17 03:17:05;;;;;;;13.23;3.50;;;4.50;99.90;;;;;;5415531;26;19991;-49
2024/04/17 03:19:31;;;;;;;14.97;3.57;;;4.40;99.90;;;;;;5414803;26;19996;-49
2024/04/17 03:21:57;;;;;;;14.90;3.50;;;4.40;99.90;;;;;;5415494;26;20441;-49
2024/04/17 03:24:23;;;;;;;13.53;4.27;;;4.40;99.90;;;;;;5415412;26;19991;-49
2024/04/17 03:26:49;;;;;;;13.53;3.47;;;4.40;99.90;;;;;;5414774;26;19991;-48
2024/04/17 03:29:16;;;;;;;16.03;3.20;;;4.40;99.90;;;;;;5414800;26;20007;-49
2024/04/17 03:31:42;;;;;;;16.10;3.70;;;4.40;99.90;;;;;;5415319;26;19992;-49
2024/04/17 03:34:07;;;;;;;17.30;4.30;;;4.40;99.90;;;;;;5415135;26;20068;-49
2024/04/17 03:36:34;;;;;;;11.20;3.70;;;4.40;99.90;;;;;;5415113;26;20406;-47
2024/04/17 03:39:00;;;;;;;19.30;3.47;;;4.40;99.90;;;;;;5414373;26;20440;-50
2024/04/17 03:41:26;;;;;;;10.77;3.63;;;4.40;99.90;;;;;;5414838;26;20046;-49
2024/04/17 03:43:52;;;;;;;16.13;3.73;;;4.30;99.90;;;;;;5415283;26;19995;-52
2024/04/17 03:46:17;;;;;;;14.63;3.53;;;4.30;99.90;;;;;;5414892;26;20003;-47
2024/04/17 03:48:44;;;;;;;16.37;3.97;;;4.20;99.90;;;;;;5414466;26;19988;-49
2024/04/17 03:51:10;;;;;;;13.47;3.50;;;4.20;99.90;;;;;;5417827;26;20064;-48
2024/04/17 03:53:36;;;;;;;12.63;3.53;;;4.20;99.90;;;;;;5418055;26;19992;-50
2024/04/17 03:56:02;;;;;;;18.23;3.90;;;4.10;99.90;;;;;;5417718;26;20065;-50
2024/04/17 03:58:28;;;;;;;16.27;3.73;;;4.00;99.90;;;;;;5417559;26;19999;-48
2024/04/17 04:00:54;;;;;;;18.47;3.63;;;4.00;99.90;;;;;;5418237;26;19992;-48
2024/04/17 04:03:20;;;;;;;13.40;3.40;;;3.90;99.90;;;;;;5416616;26;19991;-48
2024/04/17 04:05:46;;;;;;;11.13;3.50;;;3.80;99.90;;;;;;5418270;26;20069;-49
2024/04/17 04:08:12;;;;;;;13.00;3.73;;;3.90;99.90;;;;;;5416993;26;19992;-47
2024/04/17 04:10:38;;;;;;;10.63;3.63;;;3.80;99.90;;;;;;5416395;26;19991;-47
2024/04/17 04:13:04;;;;;;;11.53;3.80;;;3.80;99.90;;;;;;5418325;26;20390;-47
2024/04/17 04:15:30;;;;;;;13.40;3.90;;;3.90;99.90;;;;;;5418455;26;19995;-47
2024/04/17 04:17:56;;;;;;;10.73;3.93;;;3.90;99.90;;;;;;5415681;26;19992;-47
2024/04/17 04:20:22;;;;;;;13.20;3.97;;;3.90;99.90;;;;;;5418081;26;20064;-48
2024/04/17 04:22:48;;;;;;;12.10;3.70;;;4.00;99.90;;;;;;5418181;26;20007;-46
2024/04/17 04:25:14;;;;;;;14.33;3.93;;;3.90;99.90;;;;;;5417988;26;19999;-47
2024/04/17 04:27:41;;;;;;;12.17;3.63;;;4.00;99.90;;;;;;5416802;26;20000;-46
2024/04/17 04:30:08;;;;;;;11.00;3.67;;;3.90;99.90;;;;;;5416392;26;20558;-48
2024/04/17 04:32:34;;;;;;;11.40;3.60;;;3.90;99.90;;;;;;5417861;26;19995;-46
2024/04/17 04:35:00;;;;;;;10.10;3.67;;;3.90;99.90;;;;;;5416427;26;20061;-47
2024/04/17 04:37:28;;;;;;;15.53;4.03;;;3.80;99.90;;;;;;5418093;26;20398;-46
2024/04/17 04:39:54;;;;;;;10.97;3.47;;;3.70;99.90;;;;;;5417209;26;19991;-50
2024/04/17 04:42:20;;;;;;;19.40;5.50;;;3.70;99.90;;;;;;5417886;26;20064;-47
2024/04/17 04:44:46;;;;;;;11.13;3.83;;;3.60;99.90;;;;;;5417801;26;20073;-47
2024/04/17 04:47:14;;;;;;;17.33;4.60;;;3.60;99.90;;;;;;5417877;26;20436;-46
2024/04/17 04:49:41;;;;;;;16.93;5.17;;;3.60;99.90;;;;;;5416974;26;19991;-47
2024/04/17 04:52:07;;;;;;;16.17;4.90;;;3.60;99.90;;;;;;5417635;26;19999;-50
2024/04/17 04:54:33;;;;;;;18.23;4.97;;;3.70;99.90;;;;;;5417705;26;20410;-47
2024/04/17 04:56:59;;;;;;;16.27;5.47;;;3.80;99.90;;;;;;5417190;26;20067;-47
2024/04/17 04:59:25;;;;;;;20.23;6.03;;;3.90;99.90;;;;;;5417027;26;20068;-50
2024/04/17 05:01:51;;;;;;;19.37;6.87;;;4.00;99.90;;;;;;5416593;26;20068;-47
2024/04/17 05:04:17;;;;;;;21.70;5.73;;;4.00;99.90;;;;;;5417541;26;20072;-47
2024/04/17 05:06:43;;;;;;;14.90;5.33;;;4.10;99.90;;;;;;5417398;26;20440;-48
2024/04/17 05:09:09;;;;;;;17.23;5.47;;;4.10;99.90;;;;;;5416528;26;20390;-48
2024/04/17 05:11:35;;;;;;;17.10;6.10;;;4.10;99.90;;;;;;5417363;26;20007;-48
2024/04/17 05:14:02;;;;;;;18.73;5.93;;;4.20;99.90;;;;;;5415910;26;20006;-51
2024/04/17 05:16:28;;;;;;;21.53;6.30;;;4.30;99.90;;;;;;5417335;26;19991;-50
2024/04/17 05:18:54;;;;;;;17.73;6.50;;;4.30;99.90;;;;;;5416587;26;19988;-47
2024/04/17 05:21:20;;;;;;;20.57;5.97;;;4.50;99.90;;;;;;5417153;26;20064;-48
2024/04/17 05:23:46;;;;;;;25.00;6.90;;;4.60;99.90;;;;;;5417133;26;19992;-50
2024/04/17 05:26:12;;;;;;;19.87;6.40;;;4.70;99.90;;;;;;5417296;26;20037;-49
2024/04/17 05:28:38;;;;;;;20.80;6.17;;;4.80;99.90;;;;;;5416270;26;19992;-48
2024/04/17 05:31:04;;;;;;;19.10;5.23;;;4.80;99.90;;;;;;5417246;26;20031;-47
2024/04/17 05:33:30;;;;;;;16.50;5.63;;;4.90;99.90;;;;;;5416945;26;20439;-46
2024/04/17 05:35:56;;;;;;;18.63;5.50;;;5.00;99.90;;;;;;5417021;26;19992;-51
2024/04/17 05:38:22;;;;;;;9.03;4.23;;;5.10;99.90;;;;;;5416249;26;20005;-48
2024/04/17 05:40:48;;;;;;;14.23;5.17;;;5.10;99.90;;;;;;5416764;26;19991;-48
2024/04/17 05:43:18;;;;;;;16.37;5.17;;;5.20;99.90;;;;;;5416859;26;20003;-51
2024/04/17 05:45:44;;;;;;;;;;;5.20;99.90;;;;;;5417579;26;20010;-47
2024/04/17 05:48:10;;;;;;;12.47;4.73;;;5.20;99.90;;;;;;5416514;26;19971;-48
2024/04/17 05:50:38;;;;;;;16.00;4.90;;;5.30;99.90;;;;;;5415090;26;20414;-48
2024/04/17 05:53:04;;;;;;;15.73;5.07;;;5.40;99.90;;;;;;5416962;26;19997;-47
2024/04/17 05:55:31;;;;;;;15.03;4.57;;;5.50;99.90;;;;;;5416984;26;19995;-52
2024/04/17 05:57:58;;;;;;;17.57;5.37;;;5.60;99.90;;;;;;5416056;26;20035;-52
2024/04/17 06:00:24;;;;;;;16.50;6.47;;;5.70;99.90;;;;;;5416925;26;20000;-47
2024/04/17 06:02:50;;;;;;;16.03;5.20;;;5.80;99.90;;;;;;5416688;26;20067;-50
2024/04/17 06:05:16;;;;;;;13.10;4.87;;;5.80;99.90;;;;;;5415039;26;20004;-52
2024/04/17 06:07:42;;;;;;;13.77;4.83;;;5.80;99.90;;;;;;5415768;26;19999;-50
2024/04/17 06:10:09;;;;;;;14.53;5.37;;;5.70;99.90;;;;;;5416060;26;19995;-48
2024/04/17 06:12:35;;;;;;;14.00;5.00;;;5.60;99.90;;;;;;5416289;26;20006;-47
2024/04/17 06:15:01;;;;;;;16.93;5.70;;;5.60;99.90;;;;;;5416413;26;20382;-48
2024/04/17 06:17:27;;;;;;;13.60;5.23;;;5.60;99.90;;;;;;5416627;26;19992;-46
2024/04/17 06:19:53;;;;;;;14.60;5.43;;;5.60;99.90;;;;;;5413866;26;20060;-50
2024/04/17 06:22:20;;;;;;;12.57;5.20;;;5.60;99.90;;;;;;5416268;26;20007;-48
2024/04/17 06:24:46;;;;;;;16.13;4.87;;;5.60;99.90;;;;;;5414473;26;20004;-52
2024/04/17 06:27:12;;;;;;;14.27;4.67;;;5.50;99.90;;;;;;5415813;26;20065;-50
2024/04/17 06:29:38;;;;;;;12.73;4.90;;;5.50;99.90;;;;;;5415657;26;20432;-47
2024/04/17 06:32:04;;;;;;;14.60;5.50;;;5.60;99.90;;;;;;5416172;26;20060;-47
2024/04/17 06:34:31;;;;;;;14.77;5.40;;;5.60;99.90;;;;;;5416084;26;20068;-51
2024/04/17 06:36:57;;;;;;;13.57;5.40;;;5.60;99.90;;;;;;5416266;26;20003;-48
2024/04/17 06:39:23;;;;;;;12.17;5.20;;;5.60;99.90;;;;;;5415432;26;20072;-47
2024/04/17 06:41:50;;;;;;;11.73;5.10;;;5.70;99.90;;;;;;5416361;26;19996;-47
2024/04/17 06:44:17;;;;;;;12.73;5.40;;;5.80;99.90;;;;;;5415562;26;19996;-51
2024/04/17 06:46:43;;;;;;;12.03;4.77;;;5.90;99.90;;;;;;5415845;26;19992;-48
2024/04/17 06:49:09;;;;;;;9.97;4.20;;;5.90;99.90;;;;;;5415131;26;20010;-46
2024/04/17 06:51:35;;;;;;;13.33;4.90;;;6.00;99.90;;;;;;5415787;26;20031;-47
2024/04/17 06:54:01;;;;;;;14.53;4.97;;;6.00;99.90;;;;;;5415815;26;20325;-48
2024/04/17 06:56:28;;;;;;;10.37;4.73;;;6.00;99.90;;;;;;5415788;26;20067;-48
2024/04/17 06:58:54;;;;;;;13.17;5.33;;;6.00;99.90;;;;;;5415330;26;19988;-46
2024/04/17 07:01:21;;;;;;;17.37;5.50;;;6.10;99.90;;;;;;5413993;26;20317;-46
2024/04/17 07:03:47;;;;;;;10.00;4.57;;;6.00;99.90;;;;;;5415642;26;20069;-52
2024/04/17 07:06:13;;;;;;;15.07;4.60;;;6.00;99.90;;;;;;5415557;26;20337;-52
2024/04/17 07:08:39;;;;;;;9.53;4.70;;;6.10;99.90;;;;;;5415156;26;19987;-47
2024/04/17 07:11:05;;;;;;;8.83;4.40;;;6.10;99.90;;;;;;5415609;26;19992;-49
2024/04/17 07:13:31;;;;;;;9.80;4.73;;;6.10;99.90;;;;;;5416011;26;19988;-49
2024/04/17 07:15:57;;;;;;;13.83;4.83;;;6.10;99.90;;;;;;5415059;26;20459;-47
2024/04/17 07:18:26;;;;;;;8.87;4.63;;;6.00;99.90;;;;;;5414694;26;20003;-53
2024/04/17 07:20:53;;;;;;;9.98;4.15;;;6.00;99.90;;;;;;5415719;26;20557;-51
2024/04/17 07:23:19;;;;;;;7.67;3.23;;;6.00;99.90;;;;;;5415568;26;20000;-47
2024/04/17 07:25:45;;;;;;;6.53;3.00;;;6.00;99.90;;;;;;5418297;26;20010;-50
2024/04/17 07:28:11;;;;;;;5.50;3.03;;;5.90;99.90;;;;;;5417552;26;20381;-51
2024/04/17 07:30:39;;;;;;;7.37;2.80;;;5.90;99.90;;;;;;5417067;26;20329;-46
2024/04/17 07:33:05;;;;;;;9.23;3.57;;;5.90;99.90;;;;;;5419453;26;19996;-48
2024/04/17 07:35:31;;;;;;;8.17;3.93;;;6.00;99.90;;;;;;5418958;26;20080;-46
2024/04/17 07:37:57;;;;;;;10.63;3.93;;;6.10;99.90;;;;;;5419455;26;20053;-48
2024/04/17 07:40:23;;;;;;;7.80;4.10;;;6.20;99.90;;;;;;5420390;26;20007;-46
2024/04/17 07:42:49;;;;;;;6.87;3.43;;;6.30;99.90;;;;;;5420901;26;20082;-47
2024/04/17 07:45:15;;;;;;;7.17;3.70;;;6.40;99.90;;;;;;5420336;26;20050;-46
2024/04/17 07:47:41;;;;;;;6.43;4.00;;;6.50;99.90;;;;;;5418880;26;20009;-47
2024/04/17 07:50:08;;;;;;;11.47;5.63;;;6.60;99.90;;;;;;5418474;26;19999;-52
2024/04/17 07:52:34;;;;;;;8.93;4.20;;;6.60;99.90;;;;;;5418502;26;20513;-49
2024/04/17 07:55:00;;;;;;;10.67;3.17;;;6.60;99.90;;;;;;5418256;26;19996;-50
2024/04/17 07:57:26;;;;;;;7.40;3.23;;;6.70;99.90;;;;;;5418397;26;20073;-50
2024/04/17 07:59:53;;;;;;;6.20;3.23;;;6.60;99.90;;;;;;5415823;26;20010;-48
2024/04/17 08:02:19;;;;;;;8.37;4.30;;;6.60;99.90;;;;;;5418193;26;20068;-47
2024/04/17 08:04:45;;;;;;;7.90;4.13;;;6.70;99.90;;;;;;5418129;26;19995;-50
2024/04/17 08:07:12;;;;;;;9.03;4.40;;;6.80;99.90;;;;;;5418439;26;20278;-51
2024/04/17 08:09:39;;;;;;;6.83;4.00;;;6.90;99.90;;;;;;5417453;26;20344;-51
2024/04/17 08:12:05;;;;;;;7.63;4.00;;;6.90;99.90;;;;;;5418363;26;20007;-51
2024/04/17 08:14:31;;;;;;;6.53;4.03;;;6.90;99.90;;;;;;5418157;26;20501;-48
2024/04/17 08:16:57;;;;;;;8.17;4.00;;;6.80;99.90;;;;;;5417325;26;20008;-50
2024/04/17 08:19:23;;;;;;;7.80;4.73;;;6.80;99.90;;;;;;5417203;26;20090;-52
2024/04/17 08:21:49;;;;;;;7.17;3.67;;;6.80;99.90;;;;;;5418144;26;20027;-51
2024/04/17 08:24:16;;;;;;;6.17;2.60;;;6.80;99.90;;;;;;5417899;26;20068;-50
2024/04/17 08:26:42;;;;;;;5.27;2.37;;;6.80;99.90;;;;;;5418076;26;20424;-47
2024/04/17 08:29:08;;;;;;;6.27;3.00;;;6.90;99.90;;;;;;5415370;26;19991;-52
2024/04/17 08:31:34;;;;;;;5.03;2.27;;;6.90;99.90;;;;;;5417892;26;20003;-52
2024/04/17 08:34:00;;;;;;;7.03;3.10;;;7.00;99.90;;;;;;5417765;26;20037;-49
2024/04/17 08:36:26;;;;;;;5.87;2.70;;;7.00;99.90;;;;;;5414848;26;20392;-47
2024/04/17 08:38:55;;;;;;;5.87;2.73;;;7.10;99.90;;;;;;5416874;26;20057;-48
2024/04/17 08:41:27;;;;;;;5.38;2.70;;;7.10;99.90;;;;;;5416119;26;20007;-50
2024/04/17 08:43:59;;;;;;;6.63;2.83;;;7.20;99.90;;;;;;5417739;26;20073;-51
2024/04/17 08:46:30;;;;;;;7.70;2.63;;;7.40;99.90;;;;;;5417141;26;19996;-52
2024/04/17 08:48:56;;;;;;;5.17;2.90;;;7.50;99.90;;;;;;5417367;26;20007;-52
2024/04/17 08:51:25;;;;;;;8.33;2.50;;;7.60;99.90;;;;;;5417635;26;19999;-51
2024/04/17 08:53:58;;;;;;;3.30;1.70;;;7.80;99.90;;;;;;5416616;26;20068;-52
2024/04/17 08:56:25;;;;;;;7.17;1.83;;;8.00;99.90;;;;;;5417560;26;20032;-52
2024/04/17 08:58:53;;;;;;;5.97;2.03;;;8.10;99.90;;;;;;5414843;26;20000;-52
2024/04/17 09:01:20;;;;;;;8.00;2.80;;;8.20;99.90;;;;;;5417372;26;20365;-52
2024/04/17 09:03:47;;;;;;;6.50;2.57;;;8.50;99.90;;;;;;5417379;26;20012;-52
2024/04/17 09:06:13;;;;;;;4.67;1.47;;;8.80;99.90;;;;;;5417390;26;20003;-52
2024/04/17 09:08:42;;;;;;;6.43;1.70;;;9.00;99.90;;;;;;5416459;26;19996;-51
2024/04/17 09:11:09;;;;;;;3.80;1.30;;;9.10;99.90;;;;;;5417246;26;20343;-52
2024/04/17 09:13:35;;;;;;;3.23;1.27;;;9.10;99.90;;;;;;5417758;26;20011;-50
2024/04/17 09:16:01;;;;;;;7.17;1.40;;;9.10;99.90;;;;;;5417400;26;19995;-52
2024/04/17 09:18:28;;;;;;;3.50;1.50;;;9.10;99.90;;;;;;5416397;26;20072;-49
2024/04/17 09:20:55;;;;;;;4.80;1.97;;;9.10;99.90;;;;;;5417243;26;20072;-52
2024/04/17 09:23:21;;;;;;;6.87;1.80;;;9.10;99.90;;;;;;5417453;26;20011;-51
2024/04/17 09:25:47;;;;;;;7.83;2.80;;;9.10;99.90;;;;;;5416308;26;20069;-52
2024/04/17 09:28:13;;;;;;;5.67;2.10;;;9.30;99.90;;;;;;5414842;26;19988;-52
2024/04/17 09:30:42;;;;;;;5.33;2.10;;;9.40;99.90;;;;;;5416513;26;20395;-52
2024/04/17 09:33:12;;;;;;;6.30;2.40;;;9.60;99.90;;;;;;5416967;26;20072;-51
2024/04/17 09:35:38;;;;;;;4.87;2.30;;;9.80;99.90;;;;;;5416984;26;20379;-48
2024/04/17 09:38:15;;;;;;;4.73;2.20;;;10.00;99.90;;;;;;5416041;26;19996;-52
2024/04/17 09:40:47;;;;;;;3.80;1.93;;;10.20;99.90;;;;;;5416822;26;20004;-51
2024/04/17 09:43:24;;;;;;;5.60;2.40;;;10.40;99.90;;;;;;5416026;26;20068;-50
2024/04/17 09:46:02;;;;;;;5.53;1.90;;;10.40;99.90;;;;;;5416861;26;20628;-49
2024/04/17 09:48:29;;;;;;;5.65;2.17;;;10.80;99.90;;;;;;5415891;26;20436;-50
2024/04/17 09:51:04;;;;;;;9.13;2.08;;;11.10;99.90;;;;;;5416633;26;20361;-50
2024/04/17 09:53:46;;;;;;;7.13;2.10;;;11.50;99.90;;;;;;5416893;26;20349;-51
2024/04/17 09:56:14;;;;;;;8.35;2.88;;;11.60;99.90;;;;;;5414991;26;20337;-49
2024/04/17 09:58:46;;;;;;;5.32;2.15;;;11.40;99.90;;;;;;5415656;26;20436;-49
2024/04/17 10:01:13;;;;;;;7.50;2.65;;;11.30;99.90;;;;;;5416756;26;19991;-46
2024/04/17 10:03:41;;;;;;;8.38;2.20;;;11.20;99.90;;;;;;5416863;26;20042;-49
2024/04/17 10:06:08;;;;;;;12.00;3.58;;;11.10;99.90;;;;;;5416712;26;20032;-48
2024/04/17 10:08:36;;;;;;;7.53;3.03;;;10.90;99.90;;;;;;5414292;26;20058;-49
2024/04/17 10:11:04;;;;;;;6.60;2.45;;;10.70;99.90;;;;;;5416149;26;20450;-50
2024/04/17 10:13:32;;;;;;;7.47;2.50;;;10.50;99.90;;;;;;5416407;26;20007;-49
2024/04/17 10:15:58;;;;;;;6.40;2.00;;;10.20;99.90;;;;;;5416718;26;20411;-51
2024/04/17 10:18:25;;;;;;;7.30;2.70;;;9.50;99.90;;;;;;5415517;26;19995;-51
2024/04/17 10:20:55;;;;;;;7.53;2.17;;;8.80;99.90;;;;;;5416261;26;19992;-47
2024/04/17 10:23:26;;;;;;;7.40;2.10;;;8.10;99.90;;;;;;5416394;26;20329;-48
2024/04/17 10:25:57;;;;;;;6.00;2.80;;;7.70;99.90;;;;;;5416309;26;20010;-47
2024/04/17 10:28:24;;;;;;;4.87;2.17;;;7.40;99.90;;;;;;5415717;26;20010;-50
2024/04/17 10:30:55;;;;;;;7.23;2.70;;;7.30;99.90;;;;;;5416200;26;20344;-52
2024/04/17 10:33:30;;;;;;;6.93;2.40;;;7.40;99.90;;;;;;5416508;26;20011;-51
2024/04/17 10:35:57;;;;;;;8.27;2.43;;;7.50;99.90;;;;;;5416469;26;19999;-50
2024/04/17 10:38:27;;;;;;;5.97;2.23;;;7.80;99.90;;;;;;5415461;26;20456;-47
2024/04/17 10:40:54;;;;;;;7.07;2.70;;;8.00;99.90;;;;;;5416431;26;20034;-51
2024/04/17 10:43:21;;;;;;;9.37;2.87;;;8.10;99.90;;;;;;5416467;26;20584;-49
2024/04/17 10:45:59;;;;;;;4.57;1.70;;;8.60;99.90;;;;;;5416071;26;19996;-50
2024/04/17 10:48:26;;;;;;;6.37;1.70;;;9.30;99.90;;;;;;5415450;26;20010;-51
2024/04/17 10:50:53;;;;;;;5.60;1.73;;;10.00;99.90;;;;;;5416006;26;20003;-52
2024/04/17 10:53:21;;;;;;;6.60;1.70;;;10.80;99.90;;;;;;5415781;26;20009;-50
2024/04/17 10:55:50;;;;;;;5.05;1.63;;;11.60;99.90;;;;;;5414618;26;19992;-52
2024/04/17 10:58:18;;;;;;;4.03;1.40;;;12.60;99.90;;;;;;5413332;26;19999;-47
2024/04/17 11:00:44;;;;;;;7.82;1.70;;;13.20;99.90;;;;;;5414939;26;20064;-52
2024/04/17 11:03:12;;;;;;;3.97;1.40;;;13.50;99.90;;;;;;5415519;26;19992;-51
2024/04/17 11:05:38;;;;;;;5.25;1.23;;;13.50;99.90;;;;;;5413771;26;19996;-49
2024/04/17 11:08:04;;;;;;;3.40;1.27;;;13.50;99.90;;;;;;5415047;26;20068;-51
2024/04/17 11:10:30;;;;;;;4.78;1.23;;;13.50;99.90;;;;;;5415566;26;20425;-48
2024/04/17 11:12:56;;;;;;;3.83;1.27;;;13.30;99.90;;;;;;5415651;26;20064;-51
2024/04/17 11:15:22;;;;;;;6.68;1.60;;;13.30;99.90;;;;;;5415493;26;20440;-49
2024/04/17 11:17:49;;;;;;;6.13;1.80;;;13.60;99.90;;;;;;5414900;26;19988;-52
2024/04/17 11:20:16;;;;;;;5.57;2.03;;;13.40;99.90;;;;;;5413694;26;20035;-49
2024/04/17 11:22:43;;;;;;;6.32;2.20;;;13.00;99.90;;;;;;5415452;26;20064;-51
2024/04/17 11:25:14;;;;;;;5.53;1.30;;;12.90;99.90;;;;;;5415692;26;20007;-52
2024/04/17 11:27:40;;;;;;;2.38;0.93;;;12.80;99.90;;;;;;5412939;26;20004;-50
2024/04/17 11:30:18;;;;;;;3.47;1.17;;;12.20;99.90;;;;;;5414179;26;20003;-51
2024/04/17 11:32:45;;;;;;;2.95;0.65;;;11.00;99.90;;;;;;5414201;26;19991;-51
2024/04/17 11:35:17;;;;;;;2.37;0.60;;;10.00;99.90;;;;;;5415117;26;20007;-51
2024/04/17 11:37:50;;;;;;;4.33;0.80;;;9.30;99.90;;;;;;5414503;26;20328;-50
2024/04/17 11:40:17;;;;;;;3.97;0.70;;;8.80;99.90;;;;;;5415411;26;20011;-51
2024/04/17 11:42:43;;;;;;;2.80;0.80;;;8.50;99.90;;;;;;5415133;26;19999;-50
2024/04/17 11:45:13;;;;;;;1.73;0.70;;;8.30;99.90;;;;;;5414975;26;20008;-51
2024/04/17 11:47:40;;;;;;;2.10;0.60;;;8.00;99.90;;;;;;5415027;26;20031;-47
2024/04/17 11:50:09;;;;;;;3.23;0.87;;;7.80;99.90;;;;;;5415145;26;20032;-50
2024/04/17 11:52:36;;;;;;;1.00;0.60;;;7.60;99.90;;;;;;5414975;26;20077;-50
2024/04/17 11:55:02;;;;;;;2.20;0.70;;;7.50;99.90;;;;;;5414875;26;19996;-50
2024/04/17 11:57:29;;;;;;;4.43;0.80;;;7.30;99.90;;;;;;5414900;26;19999;-52
2024/04/17 11:59:56;;;;;;;3.37;1.17;;;7.10;99.90;;;;;;5413806;26;20002;-51
2024/04/17 12:02:23;;;;;;;4.83;0.90;;;7.00;99.90;;;;;;5412994;26;19995;-50
2024/04/17 12:04:49;;;;;;;5.70;1.93;;;6.80;99.90;;;;;;5414833;26;20448;-52
2024/04/17 12:07:16;;;;;;;3.10;0.90;;;6.80;99.90;;;;;;5414740;26;20072;-52
2024/04/17 12:09:48;;;;;;;3.50;1.03;;;6.80;99.90;;;;;;5413890;26;20077;-50
2024/04/17 12:12:18;;;;;;;4.30;1.00;;;6.90;99.90;;;;;;5418076;26;20003;-52
2024/04/17 12:14:44;;;;;;;3.58;0.70;;;7.10;99.90;;;;;;5418093;26;19996;-52
2024/04/17 12:17:12;;;;;;;3.77;0.90;;;7.30;99.90;;;;;;5418543;26;19995;-52
2024/04/17 12:19:37;;;;;;;2.83;0.80;;;7.60;99.90;;;;;;5417620;26;20010;-52
2024/04/17 12:22:04;;;;;;;5.53;1.30;;;7.90;99.90;;;;;;5418148;26;20041;-52
2024/04/17 12:27:14;;;;;;;3.20;1.37;;;8.30;99.90;;;;;;5418371;26;20394;-51
2024/04/17 12:29:42;;;;;;;5.23;1.60;;;8.50;99.90;;;;;;5417468;26;20487;-51
2024/04/17 12:32:08;;;;;;;3.77;1.00;;;8.70;99.90;;;;;;5418135;26;20010;-51
2024/04/17 12:34:34;;;;;;;2.97;0.77;;;8.80;99.90;;;;;;5417840;26;20068;-51
2024/04/17 12:37:00;;;;;;;3.27;0.87;;;9.00;99.90;;;;;;5417829;26;19995;-51
2024/04/17 12:39:26;;;;;;;3.03;0.83;;;8.90;99.90;;;;;;5416831;26;19992;-51
2024/04/17 12:41:52;;;;;;;2.67;0.90;;;8.90;99.90;;;;;;5416210;26;20501;-51
2024/04/17 12:44:19;;;;;;;4.03;0.90;;;8.80;99.90;;;;;;5417556;26;20069;-50
2024/04/17 12:46:45;;;;;;;4.33;1.10;;;8.70;99.90;;;;;;5417596;26;20007;-46
2024/04/17 12:49:11;;;;;;;3.07;0.90;;;8.50;99.90;;;;;;5416936;26;19992;-46
2024/04/17 12:51:37;;;;;;;4.00;0.70;;;8.30;99.90;;;;;;5415703;26;19995;-46